createdAt,value
2022-10-04T00:00:44.056Z,-2.92
2022-10-04T00:01:44.527Z,-2.93
2022-10-04T00:02:44.187Z,-2.91
2022-10-04T00:03:44.154Z,-2.90
2022-10-04T00:04:44.137Z,-2.92
2022-10-04T00:05:44.211Z,-2.91
2022-10-04T00:06:50.077Z,-2.90
2022-10-04T00:07:54.099Z,-2.91
2022-10-04T00:08:54.252Z,-2.91
2022-10-04T00:09:54.218Z,-2.90
2022-10-04T00:10:54.318Z,-2.90
2022-10-04T00:11:54.266Z,-2.89
2022-10-04T00:12:54.311Z,-2.88
2022-10-04T00:13:54.323Z,-2.89
2022-10-04T00:14:54.349Z,-2.87
2022-10-04T00:15:54.423Z,-2.86
2022-10-04T00:16:54.395Z,-2.87
2022-10-04T00:17:54.423Z,-2.86
2022-10-04T00:18:54.473Z,-2.86
2022-10-04T00:19:54.420Z,-2.84
2022-10-04T00:20:54.478Z,-2.84
2022-10-04T00:21:54.486Z,-2.84
2022-10-04T00:22:54.506Z,-2.84
2022-10-04T00:23:54.484Z,-2.83
2022-10-04T00:24:54.543Z,-2.83
2022-10-04T00:25:54.595Z,-2.82
2022-10-04T00:26:54.582Z,-2.82
2022-10-04T00:27:54.621Z,-2.83
2022-10-04T00:28:54.642Z,-2.83
2022-10-04T00:29:54.645Z,-2.81
2022-10-04T00:30:54.780Z,-2.83
2022-10-04T00:31:54.736Z,-2.81
2022-10-04T00:32:54.724Z,-2.81
2022-10-04T00:33:54.721Z,-2.81
2022-10-04T00:34:54.744Z,-2.81
2022-10-04T00:35:54.757Z,-2.80
2022-10-04T00:36:54.782Z,-2.80
2022-10-04T00:39:48.843Z,-2.82
2022-10-04T00:40:48.890Z,-2.80
2022-10-04T00:41:48.850Z,-2.80
2022-10-04T00:42:48.878Z,-2.80
2022-10-04T00:43:48.875Z,-2.80
2022-10-04T00:44:48.946Z,-2.79
2022-10-04T00:45:49.046Z,-2.81
2022-10-04T00:46:48.947Z,-2.80
2022-10-04T00:47:48.968Z,-2.79
2022-10-04T00:48:48.983Z,-2.79
2022-10-04T00:49:49.599Z,-2.79
2022-10-04T00:50:49.073Z,-2.79
2022-10-04T00:51:49.028Z,-2.78
2022-10-04T00:52:49.063Z,-2.79
2022-10-04T00:53:49.115Z,-2.78
2022-10-04T00:54:49.092Z,-2.77
2022-10-04T00:55:49.117Z,-2.77
2022-10-04T00:56:49.188Z,-2.78
2022-10-04T00:57:49.157Z,-2.78
2022-10-04T00:58:49.233Z,-2.78
2022-10-04T00:59:49.224Z,-2.79
2022-10-04T01:00:49.379Z,-2.79
2022-10-04T01:01:49.278Z,-2.78
2022-10-04T01:02:49.284Z,-2.78
2022-10-04T01:03:49.286Z,-2.80
2022-10-04T01:04:49.323Z,-2.78
2022-10-04T01:05:49.346Z,-2.79
2022-10-04T01:06:49.361Z,-2.79
2022-10-04T01:07:49.381Z,-2.78
2022-10-04T01:08:49.414Z,-2.78
2022-10-04T01:09:49.425Z,-2.80
2022-10-04T01:10:49.523Z,-2.78
2022-10-04T01:11:49.449Z,-2.77
2022-10-04T01:12:49.505Z,-2.77
2022-10-04T01:13:49.556Z,-2.76
2022-10-04T01:14:49.551Z,-2.76
2022-10-04T01:15:49.608Z,-2.77
2022-10-04T01:16:49.589Z,-2.77
2022-10-04T01:17:49.577Z,-2.77
2022-10-04T01:18:49.633Z,-2.77
2022-10-04T01:19:49.638Z,-2.78
2022-10-04T01:20:49.693Z,-2.77
2022-10-04T01:21:49.663Z,-2.78
2022-10-04T01:22:49.710Z,-2.78
2022-10-04T01:23:49.697Z,-2.80
2022-10-04T01:24:49.728Z,-2.79
2022-10-04T01:25:49.772Z,-2.80
2022-10-04T01:26:54.847Z,-2.80
2022-10-04T01:27:54.875Z,-2.79
2022-10-04T01:28:54.830Z,-2.82
2022-10-04T01:29:54.853Z,-2.81
2022-10-04T01:30:55.007Z,-2.81
2022-10-04T01:31:55.017Z,-2.82
2022-10-04T01:32:57.555Z,-2.84
2022-10-04T01:33:54.952Z,-2.87
2022-10-04T01:34:54.902Z,-2.88
2022-10-04T01:35:54.942Z,-2.88
2022-10-04T01:36:54.924Z,-2.89
2022-10-04T01:37:54.961Z,-2.91
2022-10-04T01:38:54.946Z,-2.93
2022-10-04T01:39:55.012Z,-2.94
2022-10-04T01:40:54.987Z,-2.96
2022-10-04T01:41:54.996Z,-2.98
2022-10-04T01:42:55.020Z,-2.98
2022-10-04T01:43:55.026Z,-3.00
2022-10-04T01:44:55.057Z,-3.02
2022-10-04T01:45:55.166Z,-3.02
2022-10-04T01:46:55.100Z,-3.04
2022-10-04T01:47:55.079Z,-3.07
2022-10-04T01:48:55.083Z,-3.05
2022-10-04T01:50:00.096Z,-3.06
2022-10-04T01:51:00.170Z,-3.09
2022-10-04T01:52:00.138Z,-3.08
2022-10-04T01:53:00.189Z,-3.09
2022-10-04T01:54:00.197Z,-3.11
2022-10-04T01:55:00.250Z,-3.11
2022-10-04T01:56:00.203Z,-3.12
2022-10-04T01:57:00.255Z,-3.13
2022-10-04T01:58:00.353Z,-3.16
2022-10-04T01:59:00.303Z,-3.16
2022-10-04T02:00:00.324Z,-3.17
2022-10-04T02:01:00.434Z,-3.17
2022-10-04T02:02:00.334Z,-3.16
2022-10-04T02:03:00.397Z,-3.17
2022-10-04T02:04:00.364Z,-3.19
2022-10-04T02:05:05.381Z,-3.18
2022-10-04T02:06:05.387Z,-3.17
2022-10-04T02:07:05.383Z,-3.18
2022-10-04T02:08:05.432Z,-3.17
2022-10-04T02:09:05.474Z,-3.17
2022-10-04T02:10:05.468Z,-3.17
2022-10-04T02:11:05.508Z,-3.16
2022-10-04T02:12:05.521Z,-3.16
2022-10-04T02:13:05.524Z,-3.17
2022-10-04T02:14:05.583Z,-3.16
2022-10-04T02:15:05.566Z,-3.17
2022-10-04T02:16:05.646Z,-3.16
2022-10-04T02:17:05.590Z,-3.19
2022-10-04T02:18:05.633Z,-3.19
2022-10-04T02:19:05.617Z,-3.19
2022-10-04T02:20:05.632Z,-3.20
2022-10-04T02:21:05.680Z,-3.22
2022-10-04T02:22:05.656Z,-3.23
2022-10-04T02:23:05.735Z,-3.24
2022-10-04T02:24:05.696Z,-3.25
2022-10-04T02:25:05.695Z,-3.27
2022-10-04T02:26:05.713Z,-3.30
2022-10-04T02:27:05.726Z,-3.32
2022-10-04T02:28:05.888Z,-3.35
2022-10-04T02:29:05.762Z,-3.37
2022-10-04T02:30:05.794Z,-3.39
2022-10-04T02:31:05.879Z,-3.41
2022-10-04T02:32:05.839Z,-3.43
2022-10-04T02:33:05.877Z,-3.43
2022-10-04T02:34:05.860Z,-3.45
2022-10-04T02:35:05.875Z,-3.48
2022-10-04T02:36:05.869Z,-3.50
2022-10-04T02:37:05.880Z,-3.52
2022-10-04T02:38:05.940Z,-3.53
2022-10-04T02:39:05.908Z,-3.54
2022-10-04T02:40:05.986Z,-3.54
2022-10-04T02:41:05.961Z,-3.55
2022-10-04T02:42:05.972Z,-3.57
2022-10-04T02:43:05.989Z,-3.58
2022-10-04T02:44:06.032Z,-3.60
2022-10-04T02:45:05.980Z,-3.60
2022-10-04T02:46:06.078Z,-3.61
2022-10-04T02:47:06.047Z,-3.63
2022-10-04T02:48:06.109Z,-3.62
2022-10-04T02:49:06.048Z,-3.64
2022-10-04T02:50:06.105Z,-3.64
2022-10-04T02:51:06.125Z,-3.65
2022-10-04T02:52:06.113Z,-3.68
2022-10-04T02:53:06.105Z,-3.68
2022-10-04T02:54:06.165Z,-3.69
2022-10-04T02:55:06.176Z,-3.72
2022-10-04T02:56:06.193Z,-3.72
2022-10-04T02:57:06.185Z,-3.75
2022-10-04T02:58:06.739Z,-3.76
2022-10-04T02:59:06.236Z,-3.78
2022-10-04T03:00:06.263Z,-3.79
2022-10-04T03:01:06.329Z,-3.79
2022-10-04T03:02:06.359Z,-3.80
2022-10-04T03:03:06.326Z,-3.80
2022-10-04T03:04:06.361Z,-3.79
2022-10-04T03:05:06.323Z,-3.79
2022-10-04T03:06:06.357Z,-3.77
2022-10-04T03:07:06.371Z,-3.77
2022-10-04T03:08:06.424Z,-3.78
2022-10-04T03:09:06.406Z,-3.77
2022-10-04T03:10:06.430Z,-3.76
2022-10-04T03:11:06.464Z,-3.78
2022-10-04T03:12:11.368Z,-3.78
2022-10-04T03:13:11.452Z,-3.78
2022-10-04T03:14:11.581Z,-3.78
2022-10-04T03:15:11.491Z,-3.80
2022-10-04T03:16:11.534Z,-3.79
2022-10-04T03:17:11.578Z,-3.80
2022-10-04T03:18:11.510Z,-3.81
2022-10-04T03:19:11.649Z,-3.80
2022-10-04T03:20:11.553Z,-3.82
2022-10-04T03:21:11.648Z,-3.81
2022-10-04T03:22:11.636Z,-3.83
2022-10-04T03:23:11.674Z,-3.83
2022-10-04T03:24:11.727Z,-3.84
2022-10-04T03:25:11.663Z,-3.85
2022-10-04T03:26:11.692Z,-3.89
2022-10-04T03:27:11.714Z,-3.89
2022-10-04T03:28:11.734Z,-3.91
2022-10-04T03:29:11.740Z,-3.95
2022-10-04T03:30:11.713Z,-3.95
2022-10-04T03:31:11.800Z,-3.97
2022-10-04T03:32:11.714Z,-3.98
2022-10-04T03:33:11.786Z,-4.00
2022-10-04T03:34:11.786Z,-4.02
2022-10-04T03:35:11.799Z,-4.04
2022-10-04T03:36:11.773Z,-4.07
2022-10-04T03:37:11.821Z,-4.08
2022-10-04T03:38:11.830Z,-4.07
2022-10-04T03:39:11.880Z,-4.10
2022-10-04T03:40:11.834Z,-4.12
2022-10-04T03:41:11.926Z,-4.14
2022-10-04T03:42:11.870Z,-4.14
2022-10-04T03:43:11.915Z,-4.16
2022-10-04T03:44:11.919Z,-4.17
2022-10-04T03:45:11.937Z,-4.21
2022-10-04T03:46:11.985Z,-4.21
2022-10-04T03:47:11.967Z,-4.23
2022-10-04T03:48:11.938Z,-4.23
2022-10-04T03:49:11.996Z,-4.24
2022-10-04T03:50:11.981Z,-4.26
2022-10-04T03:51:12.019Z,-4.27
2022-10-04T03:52:11.983Z,-4.28
2022-10-04T03:53:12.008Z,-4.28
2022-10-04T03:54:12.041Z,-4.29
2022-10-04T03:55:12.039Z,-4.29
2022-10-04T03:56:11.996Z,-4.30
2022-10-04T03:57:12.021Z,-4.32
2022-10-04T03:58:12.019Z,-4.32
2022-10-04T03:59:12.048Z,-4.35
2022-10-04T04:00:12.081Z,-4.38
2022-10-04T04:01:12.207Z,-4.40
2022-10-04T04:02:12.124Z,-4.41
2022-10-04T04:03:12.079Z,-4.41
2022-10-04T04:04:12.093Z,-4.41
2022-10-04T04:05:12.126Z,-4.43
2022-10-04T04:06:12.078Z,-4.45
2022-10-04T04:07:12.100Z,-4.44
2022-10-04T04:08:12.095Z,-4.48
2022-10-04T04:09:12.106Z,-4.49
2022-10-04T04:10:16.660Z,-4.50
2022-10-04T04:11:18.054Z,-4.52
2022-10-04T04:12:18.128Z,-4.54
2022-10-04T04:13:18.116Z,-4.53
2022-10-04T04:14:18.138Z,-4.54
2022-10-04T04:15:18.164Z,-4.55
2022-10-04T04:16:18.201Z,-4.56
2022-10-04T04:17:18.126Z,-4.56
2022-10-04T04:18:18.160Z,-4.57
2022-10-04T04:19:18.155Z,-4.60
2022-10-04T04:20:18.196Z,-4.61
2022-10-04T04:21:18.178Z,-4.63
2022-10-04T04:22:18.189Z,-4.64
2022-10-04T04:23:18.650Z,-4.64
2022-10-04T04:24:18.224Z,-4.65
2022-10-04T04:25:18.229Z,-4.67
2022-10-04T04:26:18.222Z,-4.67
2022-10-04T04:27:18.207Z,-4.71
2022-10-04T04:28:18.249Z,-4.71
2022-10-04T04:29:18.199Z,-4.71
2022-10-04T04:30:24.204Z,-4.71
2022-10-04T04:31:24.301Z,-4.72
2022-10-04T04:32:24.221Z,-4.73
2022-10-04T04:33:24.244Z,-4.74
2022-10-04T04:34:24.240Z,-4.75
2022-10-04T04:35:24.281Z,-4.78
2022-10-04T04:36:24.278Z,-4.80
2022-10-04T04:37:29.212Z,-4.83
2022-10-04T04:38:29.300Z,-4.84
2022-10-04T04:39:29.297Z,-4.85
2022-10-04T04:40:29.325Z,-4.85
2022-10-04T04:41:29.360Z,-4.87
2022-10-04T04:42:29.394Z,-4.88
2022-10-04T04:43:29.342Z,-4.90
2022-10-04T04:44:29.353Z,-4.90
2022-10-04T04:45:29.356Z,-4.91
2022-10-04T04:46:34.310Z,-4.91
2022-10-04T04:47:34.401Z,-4.91
2022-10-04T04:48:34.362Z,-4.91
2022-10-04T04:49:34.435Z,-4.91
2022-10-04T04:50:34.384Z,-4.93
2022-10-04T04:51:34.426Z,-4.93
2022-10-04T04:52:34.430Z,-4.93
2022-10-04T04:53:34.427Z,-4.93
2022-10-04T04:54:34.397Z,-4.94
2022-10-04T04:55:56.297Z,-4.93
2022-10-04T04:56:34.412Z,-4.94
2022-10-04T04:57:34.442Z,-4.91
2022-10-04T04:58:34.453Z,-4.93
2022-10-04T04:59:34.471Z,-4.93
2022-10-04T05:00:34.452Z,-4.94
2022-10-04T05:01:34.542Z,-4.94
2022-10-04T05:04:28.431Z,-4.93
2022-10-04T05:05:28.531Z,-4.93
2022-10-04T05:06:28.520Z,-4.93
2022-10-04T05:07:28.593Z,-4.95
2022-10-04T05:08:28.533Z,-4.96
2022-10-04T05:09:28.569Z,-4.97
2022-10-04T05:10:28.564Z,-4.99
2022-10-04T05:11:28.546Z,-5.01
2022-10-04T05:12:28.611Z,-5.02
2022-10-04T05:13:28.619Z,-5.01
2022-10-04T05:14:28.598Z,-5.01
2022-10-04T05:15:28.678Z,-5.00
2022-10-04T05:16:28.676Z,-5.02
2022-10-04T05:17:28.660Z,-5.05
2022-10-04T05:18:28.637Z,-5.05
2022-10-04T05:19:28.667Z,-5.06
2022-10-04T05:20:28.663Z,-5.06
2022-10-04T05:21:28.698Z,-5.09
2022-10-04T05:22:28.694Z,-5.09
2022-10-04T05:23:28.682Z,-5.10
2022-10-04T05:24:28.670Z,-5.10
2022-10-04T05:25:28.704Z,-5.09
2022-10-04T05:26:28.689Z,-5.11
2022-10-04T05:27:28.760Z,-5.10
2022-10-04T05:28:28.816Z,-5.08
2022-10-04T05:29:28.767Z,-5.10
2022-10-04T05:30:28.748Z,-5.08
2022-10-04T05:31:28.839Z,-5.09
2022-10-04T05:32:28.810Z,-5.10
2022-10-04T05:33:33.766Z,-5.09
2022-10-04T05:34:28.774Z,-5.09
2022-10-04T05:35:28.804Z,-5.10
2022-10-04T05:36:28.777Z,-5.10
2022-10-04T05:37:28.845Z,-5.09
2022-10-04T05:38:28.781Z,-5.09
2022-10-04T05:39:28.822Z,-5.11
2022-10-04T05:40:28.851Z,-5.08
2022-10-04T05:41:33.283Z,-5.09
2022-10-04T05:42:28.811Z,-5.10
2022-10-04T05:43:28.892Z,-5.10
2022-10-04T05:44:34.742Z,-5.10
2022-10-04T05:45:34.945Z,-5.10
2022-10-04T05:46:34.819Z,-5.11
2022-10-04T05:47:34.856Z,-5.11
2022-10-04T05:48:34.823Z,-5.10
2022-10-04T05:49:39.792Z,-5.13
2022-10-04T05:50:39.849Z,-5.10
2022-10-04T05:51:39.981Z,-5.14
2022-10-04T05:52:44.775Z,-5.13
2022-10-04T05:53:44.904Z,-5.15
2022-10-04T05:54:44.886Z,-5.13
2022-10-04T05:55:44.886Z,-5.14
2022-10-04T05:56:44.890Z,-5.13
2022-10-04T05:57:44.904Z,-5.14
2022-10-04T05:58:44.922Z,-5.11
2022-10-04T05:59:44.906Z,-5.10
2022-10-04T06:00:44.886Z,-5.11
2022-10-04T06:01:45.180Z,-5.10
2022-10-04T06:02:44.943Z,-5.10
2022-10-04T06:03:44.960Z,-5.09
2022-10-04T06:04:44.886Z,-5.08
2022-10-04T06:05:44.909Z,-5.06
2022-10-04T06:06:44.917Z,-5.03
2022-10-04T06:07:44.919Z,-5.02
2022-10-04T06:08:44.894Z,-5.01
2022-10-04T06:09:44.952Z,-5.01
2022-10-04T06:10:44.912Z,-5.00
2022-10-04T06:11:45.206Z,-4.99
2022-10-04T06:12:44.928Z,-4.98
2022-10-04T06:13:45.012Z,-4.99
2022-10-04T06:14:44.959Z,-4.99
2022-10-04T06:15:44.999Z,-4.99
2022-10-04T06:16:45.018Z,-4.97
2022-10-04T06:17:44.983Z,-4.96
2022-10-04T06:18:44.964Z,-4.94
2022-10-04T06:19:45.001Z,-4.94
2022-10-04T06:20:44.979Z,-4.93
2022-10-04T06:21:45.368Z,-4.94
2022-10-04T06:22:44.974Z,-4.93
2022-10-04T06:23:45.037Z,-4.94
2022-10-04T06:24:44.983Z,-4.96
2022-10-04T06:25:44.988Z,-4.96
2022-10-04T06:26:44.991Z,-4.96
2022-10-04T06:27:45.039Z,-4.96
2022-10-04T06:28:44.977Z,-4.96
2022-10-04T06:29:45.006Z,-4.97
2022-10-04T06:30:45.054Z,-4.98
2022-10-04T06:31:45.794Z,-4.98
2022-10-04T06:32:45.007Z,-4.97
2022-10-04T06:33:45.083Z,-4.98
2022-10-04T06:34:45.017Z,-4.98
2022-10-04T06:35:45.042Z,-4.96
2022-10-04T06:36:45.031Z,-4.96
2022-10-04T06:37:45.085Z,-4.98
2022-10-04T06:38:45.033Z,-4.96
2022-10-04T06:39:45.073Z,-4.96
2022-10-04T06:40:45.062Z,-4.93
2022-10-04T06:41:45.453Z,-4.94
2022-10-04T06:42:45.120Z,-4.95
2022-10-04T06:43:45.130Z,-4.91
2022-10-04T06:44:46.496Z,-4.94
2022-10-04T06:45:45.195Z,-4.90
2022-10-04T06:46:45.546Z,-4.91
2022-10-04T06:47:45.184Z,-4.91
2022-10-04T06:48:45.139Z,-4.88
2022-10-04T06:49:45.153Z,-4.89
2022-10-04T06:50:45.131Z,-4.89
2022-10-04T06:51:45.561Z,-4.88
2022-10-04T06:52:45.137Z,-4.87
2022-10-04T06:53:45.176Z,-4.88
2022-10-04T06:54:45.129Z,-4.86
2022-10-04T06:55:45.162Z,-4.87
2022-10-04T06:56:45.139Z,-4.86
2022-10-04T06:57:45.166Z,-4.87
2022-10-04T06:58:45.151Z,-4.87
2022-10-04T06:59:45.238Z,-4.85
2022-10-04T07:00:45.215Z,-4.83
2022-10-04T07:01:45.485Z,-4.82
2022-10-04T07:02:45.257Z,-4.80
2022-10-04T07:03:50.549Z,-4.78
2022-10-04T07:05:08.123Z,-4.74
2022-10-04T07:05:45.254Z,-4.72
2022-10-04T07:06:45.206Z,-4.69
2022-10-04T07:07:45.227Z,-4.68
2022-10-04T07:08:45.205Z,-4.64
2022-10-04T07:09:45.232Z,-4.64
2022-10-04T07:10:45.236Z,-4.61
2022-10-04T07:11:45.687Z,-4.61
2022-10-04T07:12:45.205Z,-4.59
2022-10-04T07:13:45.270Z,-4.57
2022-10-04T07:14:45.210Z,-4.58
2022-10-04T07:15:45.354Z,-4.56
2022-10-04T07:16:45.205Z,-4.58
2022-10-04T07:17:45.225Z,-4.54
2022-10-04T07:18:45.202Z,-4.54
2022-10-04T07:19:45.241Z,-4.52
2022-10-04T07:20:45.266Z,-4.49
2022-10-04T07:21:46.788Z,-4.45
2022-10-04T07:22:45.235Z,-4.42
2022-10-04T07:23:50.207Z,-4.40
2022-10-04T07:24:50.303Z,-4.36
2022-10-04T07:25:50.269Z,-4.34
2022-10-04T07:26:50.277Z,-4.31
2022-10-04T07:27:50.358Z,-4.28
2022-10-04T07:28:50.321Z,-4.25
2022-10-04T07:29:50.264Z,-4.22
2022-10-04T07:30:50.349Z,-4.19
2022-10-04T07:31:50.304Z,-4.14
2022-10-04T07:32:50.319Z,-4.12
2022-10-04T07:33:50.357Z,-4.07
2022-10-04T07:34:50.355Z,-4.04
2022-10-04T07:35:50.324Z,-4.00
2022-10-04T07:36:50.382Z,-3.99
2022-10-04T07:37:50.342Z,-3.95
2022-10-04T07:38:50.371Z,-3.95
2022-10-04T07:39:50.395Z,-3.94
2022-10-04T07:40:50.401Z,-3.93
2022-10-04T07:41:50.381Z,-3.94
2022-10-04T07:42:50.409Z,-3.94
2022-10-04T07:43:50.418Z,-3.95
2022-10-04T07:44:55.302Z,-3.94
2022-10-04T07:45:55.509Z,-3.95
2022-10-04T07:46:55.403Z,-3.93
2022-10-04T07:47:55.438Z,-3.92
2022-10-04T07:48:55.445Z,-3.91
2022-10-04T07:49:55.444Z,-3.92
2022-10-04T07:50:55.430Z,-3.90
2022-10-04T07:51:55.495Z,-3.89
2022-10-04T07:52:55.423Z,-3.87
2022-10-04T07:53:55.486Z,-3.86
2022-10-04T07:54:55.460Z,-3.84
2022-10-04T07:56:01.404Z,-3.83
2022-10-04T07:57:01.519Z,-3.80
2022-10-04T07:58:01.487Z,-3.79
2022-10-04T07:59:06.487Z,-3.78
2022-10-04T08:00:06.492Z,-3.75
2022-10-04T08:01:06.466Z,-3.74
2022-10-04T08:02:06.581Z,-3.72
2022-10-04T08:03:06.537Z,-3.68
2022-10-04T08:05:12.404Z,-3.66
2022-10-04T08:06:12.486Z,-3.64
2022-10-04T08:07:12.477Z,-3.61
2022-10-04T08:08:12.494Z,-3.60
2022-10-04T08:09:12.468Z,-3.54
2022-10-04T08:10:12.533Z,-3.52
2022-10-04T08:11:12.492Z,-3.49
2022-10-04T08:12:12.516Z,-3.45
2022-10-04T08:13:12.539Z,-3.40
2022-10-04T08:15:17.564Z,-3.35
2022-10-04T08:16:17.610Z,-3.30
2022-10-04T08:17:17.562Z,-3.27
2022-10-04T08:18:17.592Z,-3.25
2022-10-04T08:19:17.578Z,-3.22
2022-10-04T08:20:17.663Z,-3.19
2022-10-04T08:23:11.554Z,-3.15
2022-10-04T08:24:11.656Z,-3.04
2022-10-04T08:25:11.655Z,-3.00
2022-10-04T08:26:17.593Z,-2.97
2022-10-04T08:27:23.566Z,-2.91
2022-10-04T08:28:23.791Z,-2.91
2022-10-04T08:29:23.684Z,-2.88
2022-10-04T08:30:23.731Z,-2.84
2022-10-04T08:31:23.752Z,-2.84
2022-10-04T08:32:23.737Z,-2.79
2022-10-04T08:33:23.760Z,-2.78
2022-10-04T08:34:23.772Z,-2.78
2022-10-04T08:35:23.753Z,-2.76
2022-10-04T08:36:28.700Z,-2.73
2022-10-04T08:37:28.770Z,-2.71
2022-10-04T08:38:28.817Z,-2.68
2022-10-04T08:39:28.832Z,-2.67
2022-10-04T08:40:28.804Z,-2.67
2022-10-04T08:41:28.838Z,-2.64
2022-10-04T08:42:28.825Z,-2.63
2022-10-04T08:43:28.870Z,-2.63
2022-10-04T08:44:28.873Z,-2.61
2022-10-04T08:45:28.887Z,-2.59
2022-10-04T08:46:28.935Z,-2.59
2022-10-04T08:47:28.954Z,-2.60
2022-10-04T08:48:28.911Z,-2.57
2022-10-04T08:49:32.830Z,-2.54
2022-10-04T08:50:32.963Z,-2.56
2022-10-04T08:51:32.958Z,-2.54
2022-10-04T08:52:33.004Z,-2.56
2022-10-04T08:53:32.989Z,-2.53
2022-10-04T08:54:32.997Z,-2.54
2022-10-04T08:55:33.040Z,-2.56
2022-10-04T08:56:33.047Z,-2.56
2022-10-04T08:57:33.055Z,-2.54
2022-10-04T08:58:33.095Z,-2.54
2022-10-04T08:59:33.057Z,-2.53
2022-10-04T09:00:33.141Z,-2.54
2022-10-04T09:01:33.281Z,-2.56
2022-10-04T09:02:33.256Z,-2.54
2022-10-04T09:03:33.283Z,-2.56
2022-10-04T09:04:38.091Z,-2.53
2022-10-04T09:05:38.244Z,-2.52
2022-10-04T09:06:38.244Z,-2.50
2022-10-04T09:07:38.240Z,-2.48
2022-10-04T09:08:38.209Z,-2.47
2022-10-04T09:09:38.246Z,-2.46
2022-10-04T09:10:38.280Z,-2.43
2022-10-04T09:11:38.306Z,-2.42
2022-10-04T09:12:38.321Z,-2.42
2022-10-04T09:13:38.808Z,-2.41
2022-10-04T09:14:38.353Z,-2.36
2022-10-04T09:15:44.367Z,-2.34
2022-10-04T09:16:49.389Z,-2.32
2022-10-04T09:17:49.457Z,-2.30
2022-10-04T09:18:49.440Z,-2.27
2022-10-04T09:19:49.470Z,-2.26
2022-10-04T09:20:49.464Z,-2.21
2022-10-04T09:21:49.502Z,-2.22
2022-10-04T09:22:49.535Z,-2.18
2022-10-04T09:23:49.551Z,-2.16
2022-10-04T09:24:49.555Z,-2.16
2022-10-04T09:25:49.610Z,-2.10
2022-10-04T09:26:49.630Z,-2.10
2022-10-04T09:27:54.938Z,-2.07
2022-10-04T09:28:49.657Z,-2.06
2022-10-04T09:29:49.700Z,-2.04
2022-10-04T09:30:49.732Z,-2.03
2022-10-04T09:31:49.747Z,-2.03
2022-10-04T09:32:49.762Z,-1.99
2022-10-04T09:33:49.806Z,-1.97
2022-10-04T09:34:49.822Z,-1.95
2022-10-04T09:35:54.764Z,-1.92
2022-10-04T09:36:54.864Z,-1.90
2022-10-04T09:37:54.847Z,-1.85
2022-10-04T09:39:17.963Z,-1.84
2022-10-04T09:39:55.293Z,-1.80
2022-10-04T09:40:54.952Z,-1.82
2022-10-04T09:41:54.910Z,-1.82
2022-10-04T09:42:54.946Z,-1.79
2022-10-04T09:43:54.953Z,-1.72
2022-10-04T09:44:54.990Z,-1.70
2022-10-04T09:45:55.076Z,-1.70
2022-10-04T09:46:56.509Z,-1.69
2022-10-04T09:47:55.043Z,-1.69
2022-10-04T09:48:55.102Z,-1.69
2022-10-04T09:49:55.110Z,-1.68
2022-10-04T09:50:55.181Z,-1.68
2022-10-04T09:51:55.160Z,-1.68
2022-10-04T09:52:55.220Z,-1.64
2022-10-04T09:53:55.210Z,-1.64
2022-10-04T09:54:55.251Z,-1.62
2022-10-04T09:55:55.322Z,-1.63
2022-10-04T09:56:55.367Z,-1.59
2022-10-04T09:57:55.301Z,-1.59
2022-10-04T09:58:55.351Z,-1.56
2022-10-04T09:59:55.369Z,-1.56
2022-10-04T10:00:55.449Z,-1.54
2022-10-04T10:01:55.514Z,-1.50
2022-10-04T10:02:55.553Z,-1.53
2022-10-04T10:03:55.460Z,-1.50
2022-10-04T10:04:55.502Z,-1.48
2022-10-04T10:05:55.534Z,-1.46
2022-10-04T10:06:55.564Z,-1.47
2022-10-04T10:07:55.570Z,-1.45
2022-10-04T10:08:55.614Z,-1.44
2022-10-04T10:09:55.630Z,-1.44
2022-10-04T10:10:55.714Z,-1.39
2022-10-04T10:11:55.660Z,-1.41
2022-10-04T10:12:55.701Z,-1.35
2022-10-04T10:13:55.706Z,-1.38
2022-10-04T10:14:55.764Z,-1.38
2022-10-04T10:15:55.873Z,-1.38
2022-10-04T10:16:55.821Z,-1.38
2022-10-04T10:17:55.823Z,-1.35
2022-10-04T10:18:55.867Z,-1.34
2022-10-04T10:19:55.856Z,-1.34
2022-10-04T10:20:55.976Z,-1.34
2022-10-04T10:21:55.925Z,-1.34
2022-10-04T10:22:55.969Z,-1.30
2022-10-04T10:23:56.029Z,-1.28
2022-10-04T10:24:58.364Z,-1.29
2022-10-04T10:25:56.020Z,-1.28
2022-10-04T10:26:56.080Z,-1.26
2022-10-04T10:27:56.125Z,-1.25
2022-10-04T10:28:56.169Z,-1.24
2022-10-04T10:29:56.131Z,-1.20
2022-10-04T10:30:56.267Z,-1.18
2022-10-04T10:31:56.205Z,-1.19
2022-10-04T10:32:56.250Z,-1.16
2022-10-04T10:33:56.305Z,-1.15
2022-10-04T10:34:56.310Z,-1.14
2022-10-04T10:35:56.317Z,-1.13
2022-10-04T10:36:56.418Z,-1.12
2022-10-04T10:37:59.021Z,-1.09
2022-10-04T10:38:56.489Z,-1.06
2022-10-04T10:39:56.463Z,-1.04
2022-10-04T10:40:56.551Z,-1.05
2022-10-04T10:41:56.509Z,-1.05
2022-10-04T10:42:56.559Z,-1.05
2022-10-04T10:43:56.605Z,-0.98
2022-10-04T10:44:56.624Z,-0.99
2022-10-04T10:45:56.630Z,-1.00
2022-10-04T10:46:56.697Z,-0.96
2022-10-04T10:47:56.686Z,-0.95
2022-10-04T10:48:56.770Z,-0.95
2022-10-04T10:50:01.659Z,-0.90
2022-10-04T10:51:01.806Z,-0.85
2022-10-04T10:52:01.802Z,-0.86
2022-10-04T10:53:01.854Z,-0.84
2022-10-04T10:54:01.897Z,-0.83
2022-10-04T10:55:01.926Z,-0.82
2022-10-04T10:56:01.930Z,-0.81
2022-10-04T10:57:01.994Z,-0.83
2022-10-04T10:58:01.994Z,-0.80
2022-10-04T10:59:02.130Z,-0.77
2022-10-04T11:00:02.072Z,-0.79
2022-10-04T11:01:06.053Z,-0.79
2022-10-04T11:02:06.285Z,-0.75
2022-10-04T11:03:13.113Z,-0.73
2022-10-04T11:04:12.141Z,-0.74
2022-10-04T11:05:12.250Z,-0.72
2022-10-04T11:06:12.300Z,-0.72
2022-10-04T11:07:12.341Z,-0.72
2022-10-04T11:08:12.352Z,-0.71
2022-10-04T11:09:12.450Z,-0.71
2022-10-04T11:10:12.420Z,-0.69
2022-10-04T11:11:12.501Z,-0.69
2022-10-04T11:12:12.499Z,-0.64
2022-10-04T11:13:12.538Z,-0.67
2022-10-04T11:14:12.588Z,-0.64
2022-10-04T11:15:12.616Z,-0.62
2022-10-04T11:16:12.687Z,-0.61
2022-10-04T11:17:12.687Z,-0.60
2022-10-04T11:18:12.694Z,-0.56
2022-10-04T11:19:12.788Z,-0.55
2022-10-04T11:20:12.768Z,-0.52
2022-10-04T11:21:17.798Z,-0.52
2022-10-04T11:22:17.888Z,-0.49
2022-10-04T11:23:17.879Z,-0.46
2022-10-04T11:24:17.946Z,-0.46
2022-10-04T11:25:17.973Z,-0.46
2022-10-04T11:26:18.002Z,-0.45
2022-10-04T11:27:18.021Z,-0.47
2022-10-04T11:28:18.095Z,-0.45
2022-10-04T11:29:18.068Z,-0.53
2022-10-04T11:30:18.122Z,-0.62
2022-10-04T11:31:18.239Z,-0.59
2022-10-04T11:32:18.170Z,-0.59
2022-10-04T11:33:18.183Z,-0.56
2022-10-04T11:34:18.241Z,-0.55
2022-10-04T11:35:18.291Z,-0.53
2022-10-04T11:36:24.209Z,-0.50
2022-10-04T11:37:24.344Z,-0.51
2022-10-04T11:38:24.403Z,-0.49
2022-10-04T11:39:24.451Z,-0.50
2022-10-04T11:40:24.558Z,-0.46
2022-10-04T11:41:24.544Z,-0.46
2022-10-04T11:42:24.534Z,-0.45
2022-10-04T11:43:29.485Z,-0.40
2022-10-04T11:44:29.632Z,-0.40
2022-10-04T11:45:29.683Z,-0.40
2022-10-04T11:46:29.794Z,-0.40
2022-10-04T11:47:29.736Z,-0.37
2022-10-04T11:48:29.804Z,-0.37
2022-10-04T11:49:29.849Z,-0.34
2022-10-04T11:50:29.919Z,-0.31
2022-10-04T11:51:29.916Z,-0.29
2022-10-04T11:52:29.959Z,-0.29
2022-10-04T11:53:29.957Z,-0.26
2022-10-04T11:54:30.034Z,-0.23
2022-10-04T11:55:30.138Z,-0.20
2022-10-04T11:56:30.116Z,-0.20
2022-10-04T11:57:30.136Z,-0.23
2022-10-04T11:58:30.193Z,-0.17
2022-10-04T11:59:30.236Z,-0.13
2022-10-04T12:00:30.312Z,-0.09
2022-10-04T12:01:30.357Z,-0.10
2022-10-04T12:02:30.851Z,-0.06
2022-10-04T12:03:30.445Z,-0.02
2022-10-04T12:04:30.501Z,-0.02
2022-10-04T12:05:30.504Z,0.02
2022-10-04T12:06:30.541Z,0.07
2022-10-04T12:07:30.522Z,0.12
2022-10-04T12:08:30.602Z,0.19
2022-10-04T12:09:30.582Z,0.24
2022-10-04T12:10:30.671Z,0.30
2022-10-04T12:11:30.678Z,0.33
2022-10-04T12:12:30.741Z,0.40
2022-10-04T12:13:30.761Z,0.46
2022-10-04T12:14:30.784Z,0.49
2022-10-04T12:15:30.825Z,0.52
2022-10-04T12:16:31.002Z,0.55
2022-10-04T12:17:30.914Z,0.59
2022-10-04T12:18:31.003Z,0.65
2022-10-04T12:19:30.955Z,0.64
2022-10-04T12:20:31.061Z,0.65
2022-10-04T12:21:31.056Z,0.67
2022-10-04T12:22:34.963Z,0.71
2022-10-04T12:23:35.119Z,0.75
2022-10-04T12:24:35.132Z,0.75
2022-10-04T12:25:35.206Z,0.78
2022-10-04T12:26:35.226Z,0.81
2022-10-04T12:27:35.299Z,0.83
2022-10-04T12:28:35.368Z,0.87
2022-10-04T12:29:35.385Z,0.90
2022-10-04T12:30:35.390Z,0.90
2022-10-04T12:31:35.571Z,0.94
2022-10-04T12:32:35.510Z,0.95
2022-10-04T12:33:39.430Z,0.96
2022-10-04T12:34:39.581Z,0.99
2022-10-04T12:35:39.637Z,1.01
2022-10-04T12:36:39.670Z,1.05
2022-10-04T12:37:39.696Z,1.07
2022-10-04T12:38:39.769Z,1.07
2022-10-04T12:39:39.819Z,1.08
2022-10-04T12:40:39.903Z,1.09
2022-10-04T12:41:39.947Z,1.10
2022-10-04T12:42:40.019Z,1.14
2022-10-04T12:43:40.001Z,1.14
2022-10-04T12:44:40.064Z,1.20
2022-10-04T12:45:40.189Z,1.18
2022-10-04T12:48:39.160Z,1.19
2022-10-04T12:49:39.306Z,1.21
2022-10-04T12:50:39.325Z,1.20
2022-10-04T12:51:39.383Z,1.20
2022-10-04T12:52:39.431Z,1.19
2022-10-04T12:53:39.463Z,1.20
2022-10-04T12:54:39.510Z,1.18
2022-10-04T12:55:39.555Z,1.17
2022-10-04T12:56:39.590Z,1.11
2022-10-04T12:57:39.659Z,1.06
2022-10-04T12:58:39.701Z,1.02
2022-10-04T12:59:39.775Z,0.97
2022-10-04T13:00:39.854Z,0.97
2022-10-04T13:01:39.917Z,0.93
2022-10-04T13:02:39.925Z,0.89
2022-10-04T13:03:39.969Z,0.87
2022-10-04T13:04:40.023Z,0.83
2022-10-04T13:05:40.038Z,0.82
2022-10-04T13:06:43.617Z,0.79
2022-10-04T13:07:40.138Z,0.77